Time;durP1;ratioP1;P1;durP2;ratioP2;P2;SDS_P1;SDS_P2;PMS_P1;PMS_P2;Temp;Humidity;BMP_temperature;BMP_pressure;BME280_temperature;BME280_humidity;BME280_pressure;Samples;Min_cycle;Max_cycle;Signal;HPM_P1;HPM_P2
2023/08/31 04:02:06;;;;;;;2.30;1.30;;;14.40;89.30;;;;;;5292681;23;20579;-69
2023/08/31 04:04:33;;;;;;;2.30;1.50;;;14.40;89.00;;;;;;4917223;29;20445;-69
2023/08/31 04:07:00;;;;;;;2.80;1.50;;;14.50;89.10;;;;;;4916818;29;20938;-69
2023/08/31 04:09:27;;;;;;;2.60;1.30;;;14.60;88.90;;;;;;4917095;29;20507;-68
2023/08/31 04:11:54;;;;;;;2.20;1.10;;;14.70;88.50;;;;;;4916803;29;20469;-68
2023/08/31 04:14:20;;;;;;;1.90;1.17;;;14.80;88.40;;;;;;4925407;23;20507;-69
2023/08/31 04:16:49;;;;;;;2.07;1.30;;;14.80;88.00;;;;;;4917060;29;20432;-69
2023/08/31 04:19:18;;;;;;;4.07;1.60;;;14.80;87.70;;;;;;4916661;29;20994;-69
2023/08/31 04:21:44;;;;;;;2.13;1.43;;;14.80;87.40;;;;;;4917027;29;20629;-69
2023/08/31 04:24:11;;;;;;;2.97;1.50;;;14.80;87.00;;;;;;4916913;29;20469;-69
2023/08/31 04:26:38;;;;;;;2.67;1.47;;;14.80;87.10;;;;;;4916930;29;20448;-69
2023/08/31 04:29:05;;;;;;;3.00;1.73;;;14.80;87.30;;;;;;4916944;29;20448;-69
2023/08/31 04:31:32;;;;;;;2.53;1.50;;;14.80;86.90;;;;;;4916898;29;20485;-69
2023/08/31 04:33:58;;;;;;;2.37;1.70;;;14.80;87.10;;;;;;4916801;29;20496;-68
2023/08/31 04:36:26;;;;;;;3.60;1.57;;;14.70;87.10;;;;;;4916922;29;20452;-69
2023/08/31 04:38:53;;;;;;;4.03;1.77;;;14.70;87.00;;;;;;4916953;29;20484;-68
2023/08/31 04:41:20;;;;;;;3.90;1.60;;;14.40;87.80;;;;;;4916818;29;20445;-69
2023/08/31 04:43:48;;;;;;;2.40;1.20;;;14.30;88.70;;;;;;4916507;29;20819;-69
2023/08/31 04:46:15;;;;;;;2.53;1.60;;;14.30;88.60;;;;;;4916528;29;20540;-69
2023/08/31 04:48:41;;;;;;;2.60;1.43;;;14.30;88.60;;;;;;4916762;29;20571;-69
2023/08/31 04:51:30;;;;;;;3.67;1.50;;;14.30;88.70;;;;;;4916753;29;20453;-69
2023/08/31 04:53:56;;;;;;;2.93;1.70;;;14.40;88.40;;;;;;4916688;29;20437;-68
2023/08/31 04:56:24;;;;;;;2.20;1.47;;;14.40;88.00;;;;;;4916649;29;20459;-69
2023/08/31 04:58:50;;;;;;;2.47;1.57;;;14.40;87.90;;;;;;4916259;29;20856;-69
2023/08/31 05:01:17;;;;;;;3.23;2.13;;;14.40;87.90;;;;;;4916638;29;20449;-69
2023/08/31 05:03:44;;;;;;;2.37;1.40;;;14.30;88.30;;;;;;4916586;29;20456;-69
2023/08/31 05:06:10;;;;;;;3.17;1.53;;;14.40;88.30;;;;;;4916551;29;20468;-69
2023/08/31 05:08:38;;;;;;;2.83;1.83;;;14.50;87.80;;;;;;4916614;29;20449;-69
2023/08/31 05:11:05;;;;;;;2.60;1.43;;;14.50;87.70;;;;;;4916586;29;20527;-69
2023/08/31 05:13:32;;;;;;;3.07;1.70;;;14.60;87.60;;;;;;4916595;29;20448;-68
2023/08/31 05:15:58;;;;;;;2.90;1.67;;;14.70;87.40;;;;;;4916369;29;20509;-69
2023/08/31 05:18:25;;;;;;;2.10;1.40;;;14.70;87.40;;;;;;4916456;29;20491;-69
2023/08/31 05:20:52;;;;;;;2.67;1.40;;;14.50;87.20;;;;;;4916464;29;20445;-69
2023/08/31 05:23:18;;;;;;;2.10;1.53;;;14.50;87.60;;;;;;4917070;29;20444;-68
2023/08/31 05:25:46;;;;;;;2.03;1.40;;;14.50;87.90;;;;;;4919837;29;20524;-68
2023/08/31 05:28:13;;;;;;;2.90;1.63;;;14.40;88.10;;;;;;4919532;29;20969;-69
2023/08/31 05:30:48;;;;;;;2.20;1.30;;;14.50;88.30;;;;;;4919764;29;20871;-69
2023/08/31 05:33:15;;;;;;;2.23;1.50;;;14.50;88.20;;;;;;4919462;29;21031;-69
2023/08/31 05:35:42;;;;;;;3.50;1.70;;;14.50;88.10;;;;;;4919396;29;20985;-69
2023/08/31 05:38:08;;;;;;;2.97;1.60;;;14.60;88.20;;;;;;4919529;29;20934;-69
2023/08/31 05:40:35;;;;;;;1.90;1.30;;;14.60;88.00;;;;;;4919317;29;20849;-69
2023/08/31 05:43:03;;;;;;;2.83;2.03;;;14.70;88.00;;;;;;4919530;29;20471;-68
2023/08/31 05:45:33;;;;;;;2.20;1.50;;;14.50;88.30;;;;;;4919479;29;20555;-69
2023/08/31 05:48:00;;;;;;;2.43;1.50;;;14.60;89.00;;;;;;4919440;29;20445;-68
2023/08/31 05:50:27;;;;;;;2.77;1.80;;;14.80;88.70;;;;;;4919453;29;20480;-69
2023/08/31 05:52:54;;;;;;;4.00;1.80;;;15.00;88.10;;;;;;4919430;29;20587;-69
2023/08/31 05:55:21;;;;;;;2.67;1.87;;;15.10;88.00;;;;;;4919334;29;20864;-68
2023/08/31 05:57:47;;;;;;;2.43;1.50;;;15.10;87.50;;;;;;4919305;29;20484;-69
2023/08/31 06:00:17;;;;;;;4.10;1.60;;;15.20;87.30;;;;;;4919297;29;20873;-68
2023/08/31 06:02:44;;;;;;;5.80;1.50;;;15.20;87.00;;;;;;4919273;29;20540;-69
2023/08/31 06:05:13;;;;;;;3.53;1.33;;;15.40;86.90;;;;;;4919131;29;20888;-69
2023/08/31 06:07:40;;;;;;;2.20;1.23;;;15.40;86.20;;;;;;4919173;29;20817;-69
2023/08/31 06:10:07;;;;;;;2.00;1.20;;;15.50;86.60;;;;;;4918812;29;20872;-69
2023/08/31 06:12:34;;;;;;;2.60;1.47;;;15.60;86.50;;;;;;4918795;29;20848;-69
2023/08/31 06:15:01;;;;;;;2.27;1.43;;;15.80;86.70;;;;;;4918758;29;20539;-69
2023/08/31 06:17:29;;;;;;;2.20;1.40;;;16.10;84.40;;;;;;4919056;29;20488;-69
2023/08/31 06:19:56;;;;;;;2.03;1.40;;;16.30;84.00;;;;;;4918854;29;20499;-68
2023/08/31 06:22:24;;;;;;;2.23;1.40;;;16.60;83.30;;;;;;4919000;29;20798;-68
2023/08/31 06:24:51;;;;;;;2.23;1.20;;;16.80;82.70;;;;;;4918777;29;20465;-69
2023/08/31 06:27:18;;;;;;;3.00;1.40;;;16.90;81.80;;;;;;4918821;29;20491;-69
2023/08/31 06:29:45;;;;;;;2.10;1.30;;;17.60;82.50;;;;;;4918874;29;20444;-69
2023/08/31 06:32:11;;;;;;;2.20;1.40;;;18.60;79.60;;;;;;4918774;29;20536;-69
2023/08/31 06:34:39;;;;;;;4.20;1.50;;;19.60;76.00;;;;;;4918481;29;20473;-69
2023/08/31 06:37:06;;;;;;;2.10;1.03;;;20.50;71.80;;;;;;4918596;29;20464;-69
2023/08/31 06:39:33;;;;;;;1.83;1.10;;;20.50;71.40;;;;;;4918430;29;20488;-69
2023/08/31 06:42:00;;;;;;;3.23;1.50;;;21.20;70.60;;;;;;4918492;29;20536;-69
2023/08/31 06:44:26;;;;;;;2.33;1.20;;;22.10;69.50;;;;;;4918394;29;20524;-69
2023/08/31 06:46:53;;;;;;;2.20;1.20;;;23.10;66.90;;;;;;4918385;29;20496;-69
2023/08/31 06:49:20;;;;;;;2.20;1.23;;;24.10;65.50;;;;;;4918350;29;20504;-69
2023/08/31 06:51:48;;;;;;;2.50;1.37;;;24.90;62.90;;;;;;4918309;29;20449;-69
2023/08/31 06:54:15;;;;;;;1.80;1.00;;;24.90;62.20;;;;;;4918191;29;20476;-69
2023/08/31 06:56:42;;;;;;;2.33;1.37;;;24.60;61.40;;;;;;4918185;29;20556;-69
2023/08/31 06:59:08;;;;;;;2.57;1.20;;;23.90;63.50;;;;;;4918061;29;20927;-69
2023/08/31 07:01:35;;;;;;;2.17;1.10;;;23.30;65.40;;;;;;4918145;29;20456;-69
2023/08/31 07:04:04;;;;;;;4.40;1.40;;;22.90;67.00;;;;;;4917797;29;21006;-69
2023/08/31 07:06:30;;;;;;;2.90;1.53;;;22.80;66.20;;;;;;4918074;29;20453;-69
2023/08/31 07:08:58;;;;;;;2.70;1.47;;;22.70;68.20;;;;;;4917999;29;20449;-69
2023/08/31 07:11:26;;;;;;;2.43;1.27;;;22.10;68.20;;;;;;4917982;29;20449;-69
2023/08/31 07:13:52;;;;;;;2.23;1.27;;;21.80;68.80;;;;;;4917576;29;20939;-69
2023/08/31 07:16:19;;;;;;;2.10;1.03;;;21.40;67.90;;;;;;4917865;29;20491;-69
2023/08/31 07:18:46;;;;;;;2.50;1.50;;;21.40;70.50;;;;;;4917721;29;20487;-69
2023/08/31 07:21:12;;;;;;;3.63;1.50;;;21.10;70.20;;;;;;4917778;29;20449;-69
2023/08/31 07:23:39;;;;;;;2.40;1.43;;;20.90;71.60;;;;;;4917635;29;20524;-69
2023/08/31 07:26:07;;;;;;;2.03;1.10;;;21.00;71.90;;;;;;4917413;29;20491;-69
2023/08/31 07:28:34;;;;;;;2.00;1.10;;;21.00;70.10;;;;;;4918167;29;20468;-69
2023/08/31 07:31:04;;;;;;;2.17;1.10;;;21.00;70.70;;;;;;4917583;29;20489;-69
2023/08/31 07:33:32;;;;;;;2.90;1.20;;;20.40;70.30;;;;;;4917190;29;20800;-68
2023/08/31 07:35:59;;;;;;;2.07;1.10;;;20.30;70.90;;;;;;4917504;29;20492;-68
2023/08/31 07:38:26;;;;;;;2.17;1.20;;;20.10;71.30;;;;;;4917452;29;20492;-69
2023/08/31 07:40:53;;;;;;;3.20;1.37;;;20.00;71.40;;;;;;4917475;29;20452;-69
2023/08/31 07:43:21;;;;;;;3.30;1.63;;;19.60;70.60;;;;;;4917458;29;20445;-69
2023/08/31 07:45:48;;;;;;;2.40;1.17;;;19.50;73.30;;;;;;4917087;29;20469;-69
2023/08/31 07:48:14;;;;;;;3.60;1.40;;;19.20;73.20;;;;;;4917009;29;20954;-68
2023/08/31 07:50:41;;;;;;;2.70;1.40;;;19.40;70.30;;;;;;4917062;29;20884;-68
2023/08/31 07:53:08;;;;;;;2.00;1.20;;;19.40;71.00;;;;;;4917028;29;20453;-68
2023/08/31 07:55:35;;;;;;;2.20;1.30;;;19.40;69.70;;;;;;4917192;29;20531;-68
2023/08/31 07:58:02;;;;;;;3.17;1.40;;;19.40;71.20;;;;;;4917264;29;20476;-68
2023/08/31 08:00:30;;;;;;;2.60;1.33;;;19.70;69.10;;;;;;4916915;29;21000;-68
2023/08/31 08:02:57;;;;;;;2.60;1.20;;;19.80;69.30;;;;;;4916862;29;20813;-69
2023/08/31 08:05:23;;;;;;;1.80;1.00;;;19.70;69.00;;;;;;4916798;29;20884;-68
2023/08/31 08:07:50;;;;;;;2.33;1.20;;;19.50;67.90;;;;;;4916852;29;20962;-68
2023/08/31 08:10:17;;;;;;;2.10;1.30;;;19.40;66.80;;;;;;4916835;29;20448;-68
2023/08/31 08:12:45;;;;;;;1.83;0.97;;;19.40;67.80;;;;;;4917028;29;20507;-68
2023/08/31 08:15:12;;;;;;;2.40;1.60;;;19.70;68.00;;;;;;4916565;29;20928;-68
2023/08/31 08:17:40;;;;;;;2.40;1.23;;;19.80;66.70;;;;;;4916996;29;20452;-68
2023/08/31 08:20:09;;;;;;;2.23;1.17;;;19.90;69.20;;;;;;4916878;29;20507;-68
2023/08/31 08:22:36;;;;;;;2.67;1.23;;;20.10;67.90;;;;;;4917000;29;20453;-68
2023/08/31 08:25:03;;;;;;;2.70;1.40;;;19.90;64.10;;;;;;4916972;29;20499;-68
2023/08/31 08:27:31;;;;;;;3.73;1.47;;;20.00;66.00;;;;;;4916620;29;21010;-68
2023/08/31 08:29:58;;;;;;;3.03;1.57;;;19.90;65.40;;;;;;4916929;29;20445;-68
2023/08/31 08:32:24;;;;;;;3.20;1.50;;;20.00;65.30;;;;;;4916878;29;20575;-68
2023/08/31 08:34:52;;;;;;;3.67;1.30;;;20.10;63.10;;;;;;4916799;29;20465;-68
2023/08/31 08:37:20;;;;;;;2.27;1.20;;;20.00;64.70;;;;;;4916875;29;20503;-69
2023/08/31 08:39:49;;;;;;;2.13;1.20;;;19.90;66.80;;;;;;4916814;29;20875;-68
2023/08/31 08:42:18;;;;;;;2.50;1.53;;;20.00;62.30;;;;;;4916916;29;20531;-68
2023/08/31 08:44:45;;;;;;;2.50;1.27;;;20.20;63.30;;;;;;4916716;29;20473;-68
2023/08/31 08:47:12;;;;;;;2.23;1.43;;;20.10;62.00;;;;;;4916753;29;20457;-68
2023/08/31 08:49:39;;;;;;;3.43;1.40;;;19.90;64.40;;;;;;4916466;29;20942;-68
2023/08/31 08:52:08;;;;;;;2.53;1.20;;;19.90;64.30;;;;;;4916757;29;20448;-68
2023/08/31 08:54:35;;;;;;;2.80;1.20;;;19.90;63.30;;;;;;4916257;29;20879;-68
2023/08/31 08:57:03;;;;;;;4.53;1.37;;;19.80;62.30;;;;;;4916371;29;20968;-68
2023/08/31 08:59:31;;;;;;;2.83;1.20;;;19.70;63.50;;;;;;4918981;29;20512;-68
2023/08/31 09:01:57;;;;;;;2.00;1.20;;;19.60;63.30;;;;;;4920319;29;20500;-68
2023/08/31 09:04:24;;;;;;;2.33;1.10;;;19.80;64.80;;;;;;4920181;29;20476;-68
2023/08/31 09:06:51;;;;;;;2.83;1.40;;;19.60;63.30;;;;;;4920238;29;20444;-68
2023/08/31 09:09:19;;;;;;;2.77;1.30;;;19.50;63.60;;;;;;4920197;29;20448;-68
2023/08/31 09:11:46;;;;;;;2.80;1.30;;;19.40;65.20;;;;;;4920108;29;20828;-68
2023/08/31 09:14:17;;;;;;;2.00;1.40;;;19.40;64.70;;;;;;4919835;29;20488;-68
2023/08/31 09:16:46;;;;;;;4.03;1.47;;;19.40;64.00;;;;;;4920046;29;20448;-68
2023/08/31 09:19:20;;;;;;;2.67;1.40;;;19.50;64.20;;;;;;4919966;29;20535;-69
2023/08/31 09:21:48;;;;;;;2.93;1.40;;;19.50;65.60;;;;;;4919722;29;20971;-68
2023/08/31 09:24:17;;;;;;;2.67;1.60;;;19.70;64.10;;;;;;4919846;29;20468;-68
2023/08/31 09:26:46;;;;;;;2.60;1.40;;;19.80;62.80;;;;;;4919841;29;20508;-68
2023/08/31 09:29:13;;;;;;;2.80;1.33;;;20.10;62.10;;;;;;4919859;29;20515;-68
2023/08/31 09:31:43;;;;;;;2.53;1.13;;;20.10;63.60;;;;;;4919772;29;20465;-69
2023/08/31 09:34:10;;;;;;;3.80;1.43;;;20.00;60.00;;;;;;4919714;29;20551;-68
2023/08/31 09:36:37;;;;;;;3.10;1.60;;;19.80;62.50;;;;;;4919462;29;20942;-68
2023/08/31 09:39:04;;;;;;;1.73;0.93;;;19.40;61.40;;;;;;4919642;29;20499;-68
2023/08/31 09:41:31;;;;;;;2.00;1.10;;;19.20;62.50;;;;;;4919676;29;20614;-68
2023/08/31 09:44:15;;;;;;;2.60;1.20;;;19.20;63.20;;;;;;4919538;29;20449;-68
2023/08/31 09:46:43;;;;;;;3.00;1.37;;;19.30;62.70;;;;;;4919558;29;20508;-68
2023/08/31 09:49:10;;;;;;;2.47;1.10;;;19.40;62.10;;;;;;4919499;29;20471;-68
2023/08/31 09:51:40;;;;;;;2.20;1.50;;;19.40;62.20;;;;;;4919159;29;20811;-68
2023/08/31 09:54:09;;;;;;;2.30;1.10;;;19.50;60.50;;;;;;4919419;29;20489;-67
2023/08/31 09:56:38;;;;;;;2.40;1.20;;;19.50;60.40;;;;;;4919032;29;20942;-68
2023/08/31 09:59:06;;;;;;;2.60;1.23;;;19.30;57.90;;;;;;4919256;29;20464;-68
2023/08/31 10:01:33;;;;;;;2.90;1.47;;;19.20;58.20;;;;;;4919244;29;20449;-68
2023/08/31 10:04:00;;;;;;;3.73;1.43;;;19.20;58.70;;;;;;4918820;29;20449;-68
2023/08/31 10:06:28;;;;;;;2.57;1.23;;;19.30;58.50;;;;;;4919189;29;20539;-68
2023/08/31 10:08:55;;;;;;;1.90;1.10;;;19.30;60.10;;;;;;4918469;29;20986;-68
2023/08/31 10:11:22;;;;;;;2.47;1.30;;;19.40;60.60;;;;;;4919086;29;20445;-68
2023/08/31 10:13:50;;;;;;;3.33;1.30;;;19.60;59.90;;;;;;4918789;29;20945;-68
2023/08/31 10:16:19;;;;;;;2.10;1.20;;;19.90;61.70;;;;;;4943337;23;20500;-77
2023/08/31 10:18:46;;;;;;;2.50;1.10;;;20.40;60.60;;;;;;4918721;29;20968;-76
2023/08/31 10:21:17;;;;;;;2.30;1.27;;;20.60;57.20;;;;;;4918846;29;20480;-77
2023/08/31 10:23:45;;;;;;;2.33;1.37;;;20.70;56.20;;;;;;4919419;29;20432;-76
2023/08/31 10:26:12;;;;;;;2.17;1.23;;;20.60;55.20;;;;;;4918663;29;20469;-77
2023/08/31 10:28:42;;;;;;;2.20;1.13;;;20.40;56.90;;;;;;4918978;29;20449;-76
2023/08/31 10:31:10;;;;;;;2.20;1.47;;;20.30;57.70;;;;;;4918737;29;20532;-76
2023/08/31 10:33:41;;;;;;;2.40;1.20;;;20.20;57.60;;;;;;4918633;29;20539;-76
2023/08/31 10:36:12;;;;;;;2.90;1.70;;;20.30;58.10;;;;;;4918789;29;20524;-77
2023/08/31 10:38:39;;;;;;;2.93;1.50;;;20.20;57.60;;;;;;4918424;29;20910;-76
2023/08/31 10:41:23;;;;;;;2.50;1.53;;;20.10;58.60;;;;;;4918850;29;20497;-75
2023/08/31 10:43:51;;;;;;;2.50;1.20;;;20.00;58.30;;;;;;4919323;29;20452;-77
2023/08/31 10:46:29;;;;;;;2.20;1.27;;;20.00;58.70;;;;;;4918313;29;20847;-77
2023/08/31 10:48:59;;;;;;;2.20;1.20;;;19.90;59.60;;;;;;4919844;29;20433;-74
2023/08/31 10:51:28;;;;;;;4.30;1.50;;;20.10;59.70;;;;;;4919930;29;20448;-77
2023/08/31 10:54:06;;;;;;;2.70;1.03;;;20.20;62.40;;;;;;4919779;29;20460;-77
2023/08/31 10:56:32;;;;;;;2.00;1.10;;;20.30;57.60;;;;;;4919595;29;20528;-77
2023/08/31 10:59:00;;;;;;;2.47;1.37;;;20.20;57.40;;;;;;4918747;29;20455;-78
2023/08/31 11:01:53;;;;;;;2.93;1.50;;;20.20;57.90;;;;;;4918870;29;20623;-77
2023/08/31 11:04:21;;;;;;;2.77;1.60;;;20.20;58.30;;;;;;4918096;29;20472;-77
2023/08/31 11:06:48;;;;;;;2.17;1.57;;;20.10;58.20;;;;;;4918079;29;20471;-75
2023/08/31 11:09:20;;;;;;;2.10;1.37;;;20.10;58.60;;;;;;4918093;29;20456;-76
2023/08/31 11:11:47;;;;;;;2.20;1.43;;;20.10;59.80;;;;;;4917705;29;20879;-76
2023/08/31 11:14:14;;;;;;;2.10;1.40;;;20.10;58.90;;;;;;4917790;29;20477;-78
2023/08/31 11:16:41;;;;;;;2.67;1.77;;;20.10;59.60;;;;;;4917931;29;20469;-75
2023/08/31 11:19:08;;;;;;;2.67;1.20;;;20.10;58.50;;;;;;4917892;29;20448;-77
2023/08/31 11:21:37;;;;;;;3.40;1.43;;;20.10;59.10;;;;;;4917064;29;20491;-77
2023/08/31 11:24:04;;;;;;;2.40;1.20;;;20.30;59.20;;;;;;4918623;29;20451;-77
2023/08/31 11:26:33;;;;;;;2.93;1.23;;;20.70;57.20;;;;;;4917641;29;20484;-78
2023/08/31 11:28:59;;;;;;;2.60;1.60;;;21.00;59.60;;;;;;4917722;29;20449;-77
2023/08/31 11:31:26;;;;;;;2.53;1.10;;;21.00;57.50;;;;;;4917726;29;20441;-77
2023/08/31 11:33:54;;;;;;;2.70;1.80;;;21.10;56.90;;;;;;4917890;29;20833;-78
2023/08/31 11:36:21;;;;;;;2.27;1.23;;;21.00;56.00;;;;;;4917600;29;20473;-77
2023/08/31 11:38:50;;;;;;;2.23;1.30;;;20.80;57.00;;;;;;4917564;29;20449;-76
2023/08/31 11:41:18;;;;;;;2.70;1.43;;;20.80;57.40;;;;;;4917575;29;20484;-77
2023/08/31 11:43:45;;;;;;;2.13;1.20;;;21.10;57.90;;;;;;4917206;29;20989;-77
2023/08/31 11:46:12;;;;;;;2.97;1.40;;;21.50;56.10;;;;;;4917364;29;20472;-77
2023/08/31 11:48:40;;;;;;;2.43;1.63;;;21.70;54.10;;;;;;4917606;29;20539;-78
2023/08/31 11:51:07;;;;;;;2.87;1.33;;;21.70;55.60;;;;;;4917229;29;20444;-77
2023/08/31 11:53:34;;;;;;;3.30;1.43;;;21.60;58.20;;;;;;4917490;29;20449;-77
2023/08/31 11:56:04;;;;;;;2.20;1.20;;;21.80;55.50;;;;;;4916953;29;20532;-77
2023/08/31 11:58:30;;;;;;;2.47;1.60;;;22.00;54.90;;;;;;4917127;29;20812;-77
2023/08/31 12:00:59;;;;;;;2.27;1.33;;;22.30;54.70;;;;;;4917370;29;21049;-76
2023/08/31 12:03:26;;;;;;;2.70;1.60;;;22.40;53.80;;;;;;4917356;29;20531;-77
2023/08/31 12:05:57;;;;;;;2.93;1.30;;;22.60;53.10;;;;;;4917314;29;20551;-76
2023/08/31 12:08:28;;;;;;;3.30;1.23;;;22.70;52.30;;;;;;4917483;29;20437;-78
2023/08/31 12:10:55;;;;;;;2.30;1.27;;;22.80;54.70;;;;;;4918405;29;20448;-77
2023/08/31 12:13:28;;;;;;;2.00;1.20;;;23.10;52.70;;;;;;4918314;29;20449;-78
2023/08/31 12:15:55;;;;;;;2.00;1.10;;;22.70;53.70;;;;;;4917167;29;20487;-77
2023/08/31 12:18:22;;;;;;;1.83;0.90;;;22.50;53.20;;;;;;4919572;29;20452;-78
2023/08/31 12:20:51;;;;;;;2.53;1.30;;;22.40;53.60;;;;;;4918638;29;20520;-77
2023/08/31 12:23:21;;;;;;;3.53;1.50;;;22.50;53.90;;;;;;4917580;29;20950;-77
2023/08/31 12:25:49;;;;;;;2.23;1.10;;;22.40;53.70;;;;;;4918063;29;20473;-78
2023/08/31 12:28:15;;;;;;;3.00;1.10;;;22.20;55.10;;;;;;4918999;29;20453;-77
2023/08/31 12:30:48;;;;;;;2.53;1.40;;;22.10;57.20;;;;;;4919334;29;20477;-79
2023/08/31 12:33:15;;;;;;;3.17;1.27;;;22.10;53.80;;;;;;4920233;29;20441;-78
2023/08/31 12:35:42;;;;;;;2.40;1.00;;;21.90;53.50;;;;;;4922237;29;20545;-78
2023/08/31 12:38:08;;;;;;;2.10;1.20;;;21.50;53.80;;;;;;4921953;29;20456;-78
2023/08/31 12:40:35;;;;;;;4.27;1.10;;;21.40;56.00;;;;;;4921571;29;20488;-76
2023/08/31 12:43:02;;;;;;;2.97;1.20;;;21.60;57.70;;;;;;4920808;29;20452;-76
2023/08/31 12:45:28;;;;;;;2.10;1.30;;;21.70;54.90;;;;;;4920764;29;20476;-76
2023/08/31 12:47:56;;;;;;;2.77;1.43;;;21.60;55.30;;;;;;4920647;29;20504;-75
2023/08/31 12:50:24;;;;;;;2.60;1.23;;;21.60;57.50;;;;;;4920379;29;20445;-76
2023/08/31 12:52:50;;;;;;;3.20;1.60;;;21.60;55.40;;;;;;4920295;29;20507;-75
2023/08/31 12:55:17;;;;;;;2.10;1.20;;;21.60;54.10;;;;;;4920399;29;20495;-76
2023/08/31 12:57:44;;;;;;;2.93;1.40;;;21.60;56.20;;;;;;4920535;29;20503;-77
2023/08/31 13:00:12;;;;;;;3.43;1.30;;;21.60;55.80;;;;;;4921042;29;20531;-75
2023/08/31 13:02:40;;;;;;;2.27;1.17;;;21.70;56.30;;;;;;4920567;29;20456;-77
2023/08/31 13:05:09;;;;;;;1.80;1.30;;;21.60;56.10;;;;;;4920171;29;21009;-77
2023/08/31 13:07:36;;;;;;;2.17;1.27;;;21.50;57.30;;;;;;4919986;29;20946;-75
2023/08/31 13:10:05;;;;;;;2.70;1.70;;;21.60;59.10;;;;;;4920415;29;20449;-75
2023/08/31 13:12:32;;;;;;;2.70;1.20;;;21.70;58.10;;;;;;4919945;29;20935;-76
2023/08/31 13:14:59;;;;;;;2.67;1.53;;;21.60;55.60;;;;;;4919787;29;20492;-74
2023/08/31 13:17:26;;;;;;;2.30;1.10;;;21.10;55.20;;;;;;4920049;29;20444;-76
2023/08/31 13:19:53;;;;;;;3.27;1.23;;;21.00;58.00;;;;;;4919766;29;20504;-76
2023/08/31 13:22:22;;;;;;;2.13;1.33;;;20.90;57.50;;;;;;4920382;29;20531;-76
2023/08/31 13:24:50;;;;;;;2.37;1.43;;;21.00;57.70;;;;;;4919979;29;20464;-75
2023/08/31 13:27:17;;;;;;;3.90;1.30;;;20.90;57.10;;;;;;4920061;29;20460;-78
2023/08/31 13:29:44;;;;;;;2.73;1.50;;;21.00;58.10;;;;;;4920095;29;20985;-78
2023/08/31 13:32:11;;;;;;;7.50;1.30;;;21.50;57.60;;;;;;4920243;29;20445;-78
2023/08/31 13:34:37;;;;;;;2.00;1.10;;;21.90;59.10;;;;;;4920296;29;20558;-78
2023/08/31 13:37:04;;;;;;;2.30;1.27;;;22.40;56.80;;;;;;4920046;29;20500;-78
2023/08/31 13:39:36;;;;;;;2.13;1.43;;;22.70;55.80;;;;;;4920145;29;20456;-77
2023/08/31 13:42:03;;;;;;;3.83;1.40;;;23.20;54.90;;;;;;4919732;29;20525;-77
2023/08/31 13:44:30;;;;;;;2.30;1.10;;;23.60;53.70;;;;;;4919744;29;20475;-78
2023/08/31 13:46:57;;;;;;;2.53;1.30;;;23.70;53.40;;;;;;4919588;29;20938;-78
2023/08/31 13:49:23;;;;;;;1.93;1.20;;;23.90;52.80;;;;;;4919708;29;20947;-78
2023/08/31 13:51:50;;;;;;;2.13;1.47;;;24.10;51.00;;;;;;4919875;29;20452;-77
2023/08/31 13:54:17;;;;;;;2.53;1.13;;;24.00;51.20;;;;;;4919503;29;20884;-77
2023/08/31 13:56:45;;;;;;;3.73;1.50;;;24.00;52.40;;;;;;4919347;29;20460;-78
2023/08/31 13:59:11;;;;;;;1.83;1.10;;;23.50;52.70;;;;;;4919295;29;20456;-78
2023/08/31 14:01:38;;;;;;;2.40;1.40;;;22.80;54.30;;;;;;4919224;29;20489;-80
2023/08/31 14:04:05;;;;;;;2.27;1.43;;;22.40;54.70;;;;;;4919236;29;20540;-77
2023/08/31 14:06:32;;;;;;;2.13;1.30;;;22.10;55.20;;;;;;4919169;29;20840;-78
2023/08/31 14:08:59;;;;;;;2.90;1.30;;;21.90;56.60;;;;;;4919202;29;20445;-77
2023/08/31 14:11:29;;;;;;;2.30;1.20;;;21.90;56.50;;;;;;4919135;29;20445;-79
2023/08/31 14:14:04;;;;;;;2.30;1.20;;;21.70;56.60;;;;;;4919122;29;20437;-77
2023/08/31 14:16:31;;;;;;;1.97;1.00;;;21.60;57.50;;;;;;4919155;29;20618;-77
2023/08/31 14:18:57;;;;;;;2.47;1.30;;;21.40;57.50;;;;;;4919286;29;20860;-77
2023/08/31 14:21:24;;;;;;;2.33;1.30;;;21.40;58.50;;;;;;4918599;29;21037;-77
2023/08/31 14:23:55;;;;;;;2.83;1.30;;;21.30;57.40;;;;;;4918602;29;20934;-76
2023/08/31 14:26:22;;;;;;;1.90;1.40;;;21.10;58.50;;;;;;4918502;29;20472;-77
2023/08/31 14:28:49;;;;;;;1.93;1.30;;;21.30;57.50;;;;;;4918945;29;20449;-77
2023/08/31 14:31:17;;;;;;;2.20;1.40;;;21.70;58.30;;;;;;4918781;29;20882;-77
2023/08/31 14:33:43;;;;;;;4.57;1.47;;;22.10;57.50;;;;;;4919014;29;20875;-77
2023/08/31 14:36:11;;;;;;;2.67;1.30;;;22.20;56.10;;;;;;4918621;29;20471;-77
2023/08/31 14:38:38;;;;;;;2.47;1.47;;;22.30;54.20;;;;;;4918622;29;20444;-77
2023/08/31 14:41:06;;;;;;;2.53;1.37;;;22.20;54.90;;;;;;4918517;29;20484;-77
2023/08/31 14:43:33;;;;;;;2.57;1.73;;;22.40;55.50;;;;;;4918577;29;20456;-76
2023/08/31 14:46:00;;;;;;;2.87;1.30;;;23.30;54.20;;;;;;4918429;29;20468;-77
2023/08/31 14:48:28;;;;;;;3.17;1.47;;;24.60;52.30;;;;;;4918434;29;20733;-76
2023/08/31 14:50:55;;;;;;;2.80;1.30;;;25.80;49.90;;;;;;4918381;29;20448;-76
2023/08/31 14:53:23;;;;;;;2.87;1.40;;;25.70;48.80;;;;;;4918365;29;20504;-76
2023/08/31 14:55:50;;;;;;;2.20;1.30;;;25.30;48.40;;;;;;4917270;29;20465;-76
2023/08/31 14:58:16;;;;;;;1.90;1.30;;;24.90;49.50;;;;;;4918209;29;20488;-77
2023/08/31 15:00:43;;;;;;;3.60;1.50;;;24.50;51.30;;;;;;4917876;29;20850;-76
2023/08/31 15:03:10;;;;;;;1.87;1.10;;;23.90;52.30;;;;;;4918151;29;20459;-77
2023/08/31 15:05:41;;;;;;;3.07;1.60;;;23.50;53.70;;;;;;4918064;29;20469;-77
2023/08/31 15:08:07;;;;;;;2.37;1.40;;;23.20;55.10;;;;;;4917831;29;20991;-78
2023/08/31 15:10:34;;;;;;;2.93;1.60;;;23.00;54.60;;;;;;4918082;29;20451;-77
2023/08/31 15:13:01;;;;;;;4.00;1.67;;;22.80;55.80;;;;;;4918037;29;20452;-76
2023/08/31 15:15:28;;;;;;;2.57;1.73;;;22.90;57.10;;;;;;4917719;29;20481;-77
2023/08/31 15:17:55;;;;;;;2.57;1.37;;;23.30;55.70;;;;;;4917979;29;20452;-74
2023/08/31 15:20:22;;;;;;;2.07;1.33;;;23.60;55.20;;;;;;4917869;29;20456;-74
2023/08/31 15:22:50;;;;;;;2.70;1.20;;;23.50;54.30;;;;;;4917773;29;20488;-73
2023/08/31 15:25:16;;;;;;;2.40;1.37;;;23.40;54.70;;;;;;4917688;29;20464;-76
2023/08/31 15:27:43;;;;;;;2.90;1.30;;;23.20;55.40;;;;;;4917758;29;20456;-75
2023/08/31 15:30:11;;;;;;;2.27;1.33;;;23.00;56.00;;;;;;4917877;29;20452;-78
2023/08/31 15:32:38;;;;;;;2.00;1.20;;;22.60;57.20;;;;;;4918093;29;20445;-77
2023/08/31 15:35:05;;;;;;;1.90;1.00;;;22.30;57.30;;;;;;4917265;29;20472;-76
2023/08/31 15:37:32;;;;;;;3.90;1.70;;;22.10;57.50;;;;;;4917580;29;20453;-78
2023/08/31 15:40:00;;;;;;;3.10;1.57;;;21.90;58.10;;;;;;4917549;29;20526;-77
2023/08/31 15:42:27;;;;;;;2.10;1.33;;;21.80;59.10;;;;;;4917449;29;20484;-78
2023/08/31 15:44:55;;;;;;;4.50;1.60;;;21.60;60.90;;;;;;4917200;29;20477;-76
2023/08/31 15:47:22;;;;;;;2.50;1.20;;;21.60;59.60;;;;;;4917402;29;20463;-76
2023/08/31 15:49:50;;;;;;;2.13;1.33;;;21.50;60.10;;;;;;4917405;29;20452;-77
2023/08/31 15:52:17;;;;;;;2.10;1.17;;;21.30;60.90;;;;;;4917324;29;20447;-77
2023/08/31 15:54:43;;;;;;;2.00;1.37;;;21.10;61.70;;;;;;4917258;29;20473;-76
2023/08/31 15:57:11;;;;;;;2.37;1.30;;;20.90;62.60;;;;;;4917413;29;20452;-78
2023/08/31 15:59:38;;;;;;;2.10;1.30;;;20.90;63.90;;;;;;4918429;29;20504;-77
2023/08/31 16:02:05;;;;;;;2.10;1.40;;;20.90;63.70;;;;;;4917159;29;20485;-77
2023/08/31 16:04:32;;;;;;;2.40;1.20;;;20.80;63.50;;;;;;4917158;29;20552;-77
2023/08/31 16:06:58;;;;;;;3.40;1.63;;;20.80;64.20;;;;;;4916852;29;20500;-77
2023/08/31 16:09:25;;;;;;;2.57;1.43;;;20.90;64.70;;;;;;4917223;29;20457;-77
2023/08/31 16:11:52;;;;;;;3.30;1.60;;;21.00;64.40;;;;;;4917825;29;20540;-79
2023/08/31 16:14:20;;;;;;;2.63;1.20;;;21.00;64.00;;;;;;4917942;29;20459;-78
2023/08/31 16:16:46;;;;;;;2.60;1.30;;;21.00;63.70;;;;;;4918282;29;20433;-78
2023/08/31 16:19:13;;;;;;;2.50;1.37;;;21.00;63.80;;;;;;4917444;29;20445;-78
2023/08/31 16:21:40;;;;;;;5.23;1.97;;;21.00;64.10;;;;;;4917331;29;20484;-76
2023/08/31 16:24:07;;;;;;;2.97;1.33;;;21.10;64.40;;;;;;4917195;29;20452;-77
2023/08/31 16:26:33;;;;;;;2.70;1.53;;;21.10;65.20;;;;;;4916980;29;20468;-77
2023/08/31 16:29:00;;;;;;;3.10;1.40;;;21.10;63.60;;;;;;4916757;29;20449;-77
2023/08/31 16:31:28;;;;;;;2.53;1.60;;;21.20;63.00;;;;;;4916672;29;20935;-76
2023/08/31 16:33:55;;;;;;;4.60;1.30;;;21.20;63.10;;;;;;4916879;29;20452;-77
2023/08/31 16:36:21;;;;;;;2.20;1.30;;;21.20;63.00;;;;;;4916873;29;20476;-77
2023/08/31 16:38:48;;;;;;;2.20;0.97;;;21.20;63.20;;;;;;4916890;29;20449;-77
2023/08/31 16:41:15;;;;;;;2.37;1.40;;;21.10;63.60;;;;;;4916792;29;20508;-78
2023/08/31 16:43:41;;;;;;;2.50;1.40;;;20.90;63.30;;;;;;4916862;29;20451;-77
2023/08/31 16:46:08;;;;;;;2.10;1.40;;;20.80;63.30;;;;;;4916489;29;20488;-77
2023/08/31 16:48:36;;;;;;;2.70;1.60;;;20.70;63.50;;;;;;4916812;29;20467;-77
2023/08/31 16:51:03;;;;;;;2.30;1.50;;;20.70;64.40;;;;;;4916792;29;20456;-77